Time;durP1;ratioP1;P1;durP2;ratioP2;P2;SDS_P1;SDS_P2;PMS_P1;PMS_P2;Temp;Humidity;BMP_temperature;BMP_pressure;BME280_temperature;BME280_humidity;BME280_pressure;Samples;Min_cycle;Max_cycle;Signal;HPM_P1;HPM_P2
2022/07/13 00:00:16;;;;;;;5.05;4.30;;;19.80;99.90;;;;;;5020994;28;20396;-80
2022/07/13 00:02:42;;;;;;;5.53;4.32;;;19.80;99.90;;;;;;5042733;28;20049;-80
2022/07/13 00:05:08;;;;;;;5.57;4.28;;;19.80;99.90;;;;;;5043942;28;20052;-80
2022/07/13 00:07:35;;;;;;;4.63;4.22;;;19.80;99.90;;;;;;4994938;28;20048;-80
2022/07/13 00:10:02;;;;;;;5.05;4.50;;;19.80;99.90;;;;;;5027691;28;20044;-80
2022/07/13 00:12:28;;;;;;;5.00;4.40;;;19.80;99.90;;;;;;5046036;28;20037;-80
2022/07/13 00:14:54;;;;;;;5.53;4.80;;;19.80;99.90;;;;;;5026314;28;20455;-80
2022/07/13 00:17:19;;;;;;;6.63;5.90;;;19.80;99.90;;;;;;5027303;28;20047;-80
2022/07/13 00:19:45;;;;;;;4.35;3.95;;;19.80;99.90;;;;;;5041536;28;20057;-80
2022/07/13 00:22:11;;;;;;;5.82;4.53;;;19.80;99.90;;;;;;5005123;28;20485;-80
2022/07/13 00:24:37;;;;;;;5.80;5.20;;;19.80;99.90;;;;;;5028763;28;20045;-80
2022/07/13 00:27:02;;;;;;;6.38;5.78;;;19.80;99.90;;;;;;5042034;28;20037;-80
2022/07/13 00:29:28;;;;;;;6.10;5.60;;;19.80;99.90;;;;;;5044660;28;20036;-80
2022/07/13 00:31:54;;;;;;;6.05;5.55;;;19.80;99.90;;;;;;5022259;28;20045;-81
2022/07/13 00:34:19;;;;;;;6.32;5.60;;;19.80;99.90;;;;;;5024153;28;20133;-82
2022/07/13 00:36:45;;;;;;;6.63;5.88;;;19.80;99.90;;;;;;5026820;28;20068;-81
2022/07/13 00:39:11;;;;;;;7.70;5.72;;;19.80;99.90;;;;;;5046079;28;20048;-81
2022/07/13 00:41:44;;;;;;;5.93;5.43;;;19.80;99.90;;;;;;5031210;28;20071;-81
2022/07/13 00:44:10;;;;;;;5.65;5.15;;;19.80;99.90;;;;;;5041358;28;20080;-82
2022/07/13 00:46:37;;;;;;;6.28;5.72;;;19.80;99.90;;;;;;5016023;28;20640;-81
2022/07/13 00:49:04;;;;;;;6.03;5.53;;;19.70;99.90;;;;;;5045344;28;20076;-81
2022/07/13 00:51:30;;;;;;;7.10;6.50;;;19.70;99.90;;;;;;5030388;28;20030;-81
2022/07/13 00:53:56;;;;;;;7.20;6.05;;;19.70;99.90;;;;;;5020221;28;20044;-82
2022/07/13 00:56:24;;;;;;;8.15;6.13;;;19.70;99.90;;;;;;5047220;28;20045;-81
2022/07/13 00:58:50;;;;;;;7.22;6.53;;;19.80;99.90;;;;;;5047262;28;20040;-81
2022/07/13 01:01:16;;;;;;;6.80;6.15;;;19.70;99.90;;;;;;5030469;28;20044;-81
2022/07/13 01:03:42;;;;;;;7.85;7.05;;;19.70;99.90;;;;;;5027793;28;20041;-81
2022/07/13 01:06:08;;;;;;;6.82;6.13;;;19.70;99.90;;;;;;5028083;28;20041;-81
2022/07/13 01:08:34;;;;;;;7.40;6.70;;;19.70;99.90;;;;;;5030038;28;20032;-81
2022/07/13 01:11:01;;;;;;;7.00;6.28;;;19.70;99.90;;;;;;5046245;28;20041;-81
2022/07/13 01:13:26;;;;;;;5.75;5.25;;;19.70;99.90;;;;;;5041693;28;20104;-81
2022/07/13 01:15:52;;;;;;;7.90;7.20;;;19.70;99.90;;;;;;5029770;28;20036;-82
2022/07/13 01:18:18;;;;;;;5.75;5.25;;;19.70;99.90;;;;;;5023471;28;20045;-83
2022/07/13 01:20:44;;;;;;;8.43;7.45;;;19.70;99.90;;;;;;5051839;28;20114;-83
2022/07/13 01:23:11;;;;;;;9.35;7.88;;;19.70;99.90;;;;;;5034874;28;20071;-83
2022/07/13 01:25:37;;;;;;;9.55;7.60;;;19.70;99.90;;;;;;5043937;28;20034;-82
2022/07/13 01:28:03;;;;;;;11.13;8.38;;;19.70;99.90;;;;;;5030559;28;20041;-83
2022/07/13 01:30:29;;;;;;;8.60;7.80;;;19.70;99.90;;;;;;5024638;28;20034;-83
2022/07/13 01:32:55;;;;;;;10.32;8.63;;;19.70;99.90;;;;;;5010122;28;20084;-82
2022/07/13 01:35:22;;;;;;;13.10;8.27;;;19.70;99.90;;;;;;5062279;28;20049;-83
2022/07/13 01:37:48;;;;;;;9.20;8.35;;;19.70;99.90;;;;;;5034449;28;20045;-83
2022/07/13 01:40:14;;;;;;;10.77;9.65;;;19.70;99.90;;;;;;5040993;28;20041;-84
2022/07/13 01:42:42;;;;;;;11.75;9.43;;;19.70;99.90;;;;;;5025082;28;20037;-83
2022/07/13 01:45:08;;;;;;;10.65;9.65;;;19.70;99.90;;;;;;5031177;28;20044;-83
2022/07/13 01:47:41;;;;;;;10.65;9.60;;;19.70;99.90;;;;;;5062924;28;20025;-82
2022/07/13 01:50:09;;;;;;;10.73;9.63;;;19.70;99.90;;;;;;5053985;28;20052;-83
2022/07/13 01:52:38;;;;;;;11.23;10.13;;;19.70;99.90;;;;;;5039733;28;20048;-82
2022/07/13 01:55:05;;;;;;;12.65;11.02;;;19.70;99.90;;;;;;5033506;28;20036;-83
2022/07/13 01:57:32;;;;;;;10.88;9.80;;;19.70;99.90;;;;;;5038668;28;20043;-83
2022/07/13 02:00:05;;;;;;;11.80;10.45;;;19.70;99.90;;;;;;5048838;28;20053;-83
2022/07/13 02:02:31;;;;;;;11.30;10.10;;;19.70;99.90;;;;;;5040837;28;20048;-83
2022/07/13 02:04:57;;;;;;;11.57;10.38;;;19.70;99.90;;;;;;5030203;28;20045;-83
2022/07/13 02:07:23;;;;;;;14.52;11.13;;;19.70;99.90;;;;;;5030471;28;20048;-83
2022/07/13 02:09:49;;;;;;;12.18;10.93;;;19.70;99.90;;;;;;5043505;28;20033;-83
2022/07/13 02:12:16;;;;;;;12.23;10.70;;;19.70;99.90;;;;;;5044082;28;20037;-83
2022/07/13 02:14:42;;;;;;;12.45;10.82;;;19.70;99.90;;;;;;5028948;28;20113;-82
2022/07/13 02:17:07;;;;;;;11.70;10.52;;;19.70;99.90;;;;;;5028809;28;20045;-82
2022/07/13 02:19:33;;;;;;;12.00;10.80;;;19.70;99.90;;;;;;5031847;28;20903;-82
2022/07/13 02:21:59;;;;;;;10.77;9.68;;;19.70;99.90;;;;;;5030221;28;20044;-83
2022/07/13 02:24:25;;;;;;;9.43;8.45;;;19.80;99.90;;;;;;5020402;28;20037;-83
2022/07/13 02:26:50;;;;;;;11.52;10.32;;;19.70;99.90;;;;;;5032284;28;20063;-83
2022/07/13 02:29:16;;;;;;;13.35;10.65;;;19.70;99.90;;;;;;5041406;28;20116;-83
2022/07/13 02:31:42;;;;;;;13.30;10.50;;;19.70;99.90;;;;;;5029241;28;20171;-83
2022/07/13 02:34:08;;;;;;;12.75;10.93;;;19.70;99.90;;;;;;5014893;28;20040;-83
2022/07/13 02:36:34;;;;;;;14.65;10.63;;;19.70;99.90;;;;;;5046605;28;20044;-82
2022/07/13 02:38:59;;;;;;;12.02;10.77;;;19.70;99.90;;;;;;5048684;28;20040;-82
2022/07/13 02:41:25;;;;;;;14.57;11.45;;;19.70;99.90;;;;;;5030138;28;20044;-84
2022/07/13 02:43:51;;;;;;;13.15;11.52;;;19.80;99.90;;;;;;5054119;28;20400;-83
2022/07/13 02:46:16;;;;;;;12.32;10.80;;;19.80;99.90;;;;;;5030131;28;20033;-83
2022/07/13 02:48:42;;;;;;;12.75;11.00;;;19.80;99.90;;;;;;5045255;28;20040;-83
2022/07/13 02:51:08;;;;;;;14.45;11.20;;;19.80;99.90;;;;;;5034617;28;20121;-82
2022/07/13 02:53:33;;;;;;;12.30;10.93;;;19.80;99.90;;;;;;5015309;28;20032;-83
2022/07/13 02:55:59;;;;;;;14.07;10.95;;;19.80;99.90;;;;;;5049547;28;20043;-83
2022/07/13 02:58:25;;;;;;;12.57;9.75;;;19.70;99.90;;;;;;5026139;28;20041;-83
2022/07/13 03:00:51;;;;;;;11.80;10.05;;;19.80;99.90;;;;;;5046210;28;20083;-83
2022/07/13 03:03:17;;;;;;;10.65;9.55;;;19.80;99.90;;;;;;5044853;28;20446;-82
2022/07/13 03:05:42;;;;;;;10.75;9.57;;;19.80;99.90;;;;;;5033382;28;20047;-83
2022/07/13 03:08:08;;;;;;;12.20;9.80;;;19.80;99.90;;;;;;5026327;28;20033;-83
2022/07/13 03:10:34;;;;;;;12.73;10.23;;;19.80;99.90;;;;;;5024009;28;20029;-83
2022/07/13 03:13:00;;;;;;;10.70;9.38;;;19.80;99.90;;;;;;5050004;28;20079;-82
2022/07/13 03:15:26;;;;;;;10.73;9.13;;;19.80;99.90;;;;;;5010712;28;20043;-83
2022/07/13 03:17:52;;;;;;;11.45;9.30;;;19.90;99.90;;;;;;5046203;28;20145;-83
2022/07/13 03:20:17;;;;;;;11.15;9.40;;;19.90;99.90;;;;;;5013542;28;20478;-83
2022/07/13 03:22:43;;;;;;;11.00;9.45;;;19.80;99.90;;;;;;5017300;28;20129;-82
2022/07/13 03:25:09;;;;;;;11.75;9.45;;;19.90;99.90;;;;;;5047120;28;20086;-83
2022/07/13 03:27:35;;;;;;;10.52;9.00;;;19.90;99.90;;;;;;4999116;28;20032;-82
2022/07/13 03:30:01;;;;;;;10.95;9.15;;;19.80;99.90;;;;;;5026873;28;20036;-82
2022/07/13 03:32:27;;;;;;;10.15;9.10;;;19.90;99.90;;;;;;5035514;28;20087;-83
2022/07/13 03:34:52;;;;;;;11.57;9.25;;;19.80;99.90;;;;;;5014572;28;20045;-83
2022/07/13 03:37:18;;;;;;;12.48;9.07;;;19.90;99.90;;;;;;5044714;28;20044;-83
2022/07/13 03:39:43;;;;;;;12.48;9.45;;;19.90;99.90;;;;;;5043157;28;20067;-83
2022/07/13 03:42:09;;;;;;;10.60;9.50;;;19.80;99.90;;;;;;5045721;28;20041;-83
2022/07/13 03:44:35;;;;;;;14.07;10.55;;;19.80;99.90;;;;;;5013886;28;20045;-83
2022/07/13 03:47:01;;;;;;;12.60;9.35;;;19.80;99.90;;;;;;5026953;28;20037;-83
2022/07/13 03:49:26;;;;;;;12.65;9.45;;;19.80;99.90;;;;;;5064237;28;20047;-83
2022/07/13 03:51:52;;;;;;;14.30;9.00;;;19.80;99.90;;;;;;5043556;28;20186;-83
2022/07/13 03:54:18;;;;;;;14.63;9.68;;;19.80;99.90;;;;;;5031617;28;20037;-83
2022/07/13 03:56:44;;;;;;;10.32;8.85;;;19.80;99.90;;;;;;5049212;28;20094;-83
2022/07/13 03:59:09;;;;;;;10.10;8.93;;;19.80;99.90;;;;;;5027353;28;20127;-83
2022/07/13 04:01:35;;;;;;;10.27;8.93;;;19.80;99.90;;;;;;5029556;28;20037;-83
2022/07/13 04:04:02;;;;;;;11.65;8.85;;;19.80;99.90;;;;;;5027516;28;20412;-83
2022/07/13 04:06:28;;;;;;;10.20;9.05;;;19.80;99.90;;;;;;5036039;28;20549;-82
2022/07/13 04:08:54;;;;;;;10.38;9.27;;;19.70;99.90;;;;;;5014086;28;20068;-83
2022/07/13 04:11:19;;;;;;;10.65;9.32;;;19.80;99.90;;;;;;5050719;28;20442;-83
2022/07/13 04:13:45;;;;;;;10.40;9.13;;;19.70;99.90;;;;;;5032580;28;20435;-83
2022/07/13 04:16:11;;;;;;;12.27;9.30;;;19.70;99.90;;;;;;5024323;28;20071;-83
2022/07/13 04:18:36;;;;;;;10.80;9.38;;;19.70;99.90;;;;;;5024602;28;20053;-83
2022/07/13 04:21:03;;;;;;;13.35;9.40;;;19.70;99.90;;;;;;5031252;28;20487;-84
2022/07/13 04:23:30;;;;;;;9.98;8.98;;;19.70;99.90;;;;;;5047756;28;20059;-83
2022/07/13 04:25:56;;;;;;;11.05;9.38;;;19.70;99.90;;;;;;5057504;28;20029;-82
2022/07/13 04:28:23;;;;;;;9.65;8.50;;;19.70;99.90;;;;;;5044761;28;20104;-83
2022/07/13 04:30:48;;;;;;;10.50;9.40;;;19.80;99.90;;;;;;5018264;28;20065;-84
2022/07/13 04:33:14;;;;;;;10.82;9.20;;;19.80;99.90;;;;;;5027600;28;20119;-83
2022/07/13 04:35:40;;;;;;;10.20;9.18;;;19.80;99.90;;;;;;5030947;28;20047;-83
2022/07/13 04:38:06;;;;;;;9.95;8.95;;;19.80;99.90;;;;;;5034559;28;20041;-83
2022/07/13 04:40:31;;;;;;;11.07;9.40;;;19.80;99.90;;;;;;5016950;28;20076;-83
2022/07/13 04:42:57;;;;;;;11.00;8.95;;;19.80;99.90;;;;;;5049611;28;20512;-83
2022/07/13 04:45:23;;;;;;;10.48;9.13;;;19.80;99.90;;;;;;5011496;28;20040;-83
2022/07/13 04:47:49;;;;;;;16.10;10.10;;;19.80;99.90;;;;;;5045989;28;20037;-83
2022/07/13 04:50:15;;;;;;;12.02;10.05;;;19.80;99.90;;;;;;5051117;28;20530;-82
2022/07/13 04:52:40;;;;;;;13.00;10.48;;;19.80;99.90;;;;;;5047693;28;20079;-84
2022/07/13 04:55:07;;;;;;;10.68;9.30;;;19.80;99.90;;;;;;5040850;28;20235;-83
2022/07/13 04:57:33;;;;;;;11.45;9.60;;;19.80;99.90;;;;;;5008459;28;20040;-83
2022/07/13 04:59:59;;;;;;;10.43;9.35;;;19.90;99.90;;;;;;5018450;28;20052;-83
2022/07/13 05:02:25;;;;;;;12.52;10.02;;;19.90;99.90;;;;;;5032400;28;20044;-84
2022/07/13 05:04:50;;;;;;;10.82;8.43;;;19.90;99.90;;;;;;5024920;28;20089;-83
2022/07/13 05:07:16;;;;;;;12.93;9.38;;;19.90;99.90;;;;;;5012585;28;20471;-83
2022/07/13 05:09:42;;;;;;;10.57;8.75;;;19.90;99.90;;;;;;5026398;28;20041;-86
2022/07/13 05:12:08;;;;;;;10.98;9.05;;;20.00;99.90;;;;;;5036041;28;20037;-87
2022/07/13 05:14:35;;;;;;;10.07;8.32;;;19.90;99.90;;;;;;5021980;28;20488;-86
2022/07/13 05:17:01;;;;;;;11.73;8.85;;;20.00;99.90;;;;;;5025348;28;20052;-87
2022/07/13 05:19:27;;;;;;;9.15;8.18;;;20.00;99.90;;;;;;5037014;28;20048;-87
2022/07/13 05:21:53;;;;;;;9.57;8.25;;;20.00;99.90;;;;;;5029192;28;20507;-87
2022/07/13 05:24:19;;;;;;;9.85;8.38;;;20.00;99.90;;;;;;5040124;28;20041;-86
2022/07/13 05:26:44;;;;;;;9.02;8.13;;;20.00;99.90;;;;;;5056467;28;20041;-86
2022/07/13 05:29:10;;;;;;;9.93;7.88;;;20.10;99.90;;;;;;5038242;28;20513;-87
2022/07/13 05:31:36;;;;;;;9.18;7.45;;;20.10;99.90;;;;;;5018987;28;20393;-87
2022/07/13 05:34:02;;;;;;;7.90;6.85;;;20.10;99.90;;;;;;5014870;28;20045;-86
2022/07/13 05:36:27;;;;;;;9.68;7.10;;;20.20;99.90;;;;;;5024952;28;20036;-86
2022/07/13 05:38:53;;;;;;;9.30;6.43;;;20.20;99.90;;;;;;5028801;28;20135;-86
2022/07/13 05:41:21;;;;;;;8.35;6.68;;;20.20;99.90;;;;;;5035936;28;20120;-86
2022/07/13 05:43:47;;;;;;;9.77;7.05;;;20.30;99.90;;;;;;5037929;28;20083;-87
2022/07/13 05:46:13;;;;;;;7.43;6.63;;;20.40;99.90;;;;;;5038369;28;20125;-86
2022/07/13 05:48:39;;;;;;;8.43;6.97;;;20.40;99.90;;;;;;5031601;28;20059;-86
2022/07/13 05:51:05;;;;;;;8.50;6.78;;;20.50;99.90;;;;;;5025055;28;20668;-85
2022/07/13 05:53:30;;;;;;;7.53;6.35;;;20.50;99.90;;;;;;5020392;28;20044;-86
2022/07/13 05:55:56;;;;;;;7.68;6.88;;;20.60;99.90;;;;;;5051155;28;20045;-86
2022/07/13 05:58:22;;;;;;;9.98;6.75;;;20.60;99.90;;;;;;5049306;28;20087;-86
2022/07/13 06:00:48;;;;;;;7.07;6.38;;;20.60;99.90;;;;;;5034504;28;20036;-86
2022/07/13 06:03:14;;;;;;;9.75;6.68;;;20.70;99.90;;;;;;5026060;28;20045;-86
2022/07/13 06:05:39;;;;;;;7.28;6.57;;;20.80;99.90;;;;;;5022445;28;20051;-86
2022/07/13 06:08:05;;;;;;;6.55;5.93;;;20.80;99.90;;;;;;5054428;28;20443;-86
2022/07/13 06:10:31;;;;;;;6.60;5.90;;;20.90;99.90;;;;;;5030326;28;20346;-86
2022/07/13 06:12:57;;;;;;;8.80;5.68;;;21.00;99.90;;;;;;4999801;28;20244;-87
2022/07/13 06:15:22;;;;;;;8.50;6.78;;;21.00;99.90;;;;;;5036863;28;20481;-86
2022/07/13 06:17:48;;;;;;;6.70;6.00;;;21.10;99.90;;;;;;5003892;28;20123;-86
2022/07/13 06:20:14;;;;;;;7.57;6.30;;;21.10;99.90;;;;;;5044563;28;20099;-86
2022/07/13 06:22:40;;;;;;;6.80;5.72;;;21.20;99.90;;;;;;5004198;28;20045;-87
2022/07/13 06:25:06;;;;;;;6.07;5.43;;;21.30;99.90;;;;;;5024295;28;20072;-87
2022/07/13 06:27:31;;;;;;;7.38;6.07;;;21.30;99.90;;;;;;5016173;28;20029;-86
2022/07/13 06:29:58;;;;;;;6.47;5.70;;;21.30;99.90;;;;;;5024532;28;20395;-88
2022/07/13 06:32:23;;;;;;;6.28;5.68;;;21.40;99.90;;;;;;5056097;28;20032;-86
2022/07/13 06:34:49;;;;;;;6.45;4.63;;;21.60;99.90;;;;;;5040280;28;20397;-87
2022/07/13 06:37:15;;;;;;;8.02;5.03;;;21.80;99.90;;;;;;5039319;28;20045;-87
2022/07/13 06:39:41;;;;;;;6.07;5.47;;;21.90;99.90;;;;;;5039800;28;20045;-87
2022/07/13 06:42:09;;;;;;;6.03;5.15;;;22.00;99.90;;;;;;5025487;28;20144;-87
2022/07/13 06:44:34;;;;;;;7.13;5.07;;;22.10;99.90;;;;;;5038372;28;20056;-84
2022/07/13 06:47:00;;;;;;;5.35;4.68;;;22.10;99.90;;;;;;5072149;28;20064;-84
2022/07/13 06:49:27;;;;;;;9.68;4.47;;;22.30;99.90;;;;;;5036098;28;20123;-83
2022/07/13 06:51:55;;;;;;;5.05;4.55;;;22.40;99.90;;;;;;5054277;28;20044;-84
2022/07/13 06:54:20;;;;;;;5.53;4.45;;;22.50;99.90;;;;;;5053971;28;20114;-85
2022/07/13 06:56:46;;;;;;;5.40;4.90;;;22.70;99.90;;;;;;5001420;28;20036;-84
2022/07/13 06:59:12;;;;;;;5.40;4.90;;;22.80;99.90;;;;;;5024959;28;20029;-84
2022/07/13 07:01:38;;;;;;;5.22;4.72;;;23.00;99.90;;;;;;5073102;28;20062;-83
2022/07/13 07:04:03;;;;;;;4.95;4.30;;;23.00;99.90;;;;;;5068538;28;20054;-83
2022/07/13 07:06:29;;;;;;;5.72;5.05;;;23.10;99.90;;;;;;5020199;28;20146;-83
2022/07/13 07:08:55;;;;;;;6.75;5.60;;;23.10;99.90;;;;;;5011097;28;20385;-86
2022/07/13 07:11:21;;;;;;;9.48;5.65;;;23.20;99.90;;;;;;5037643;28;20373;-84
2022/07/13 07:13:46;;;;;;;8.38;6.47;;;23.20;99.90;;;;;;5025981;28;20053;-83
2022/07/13 07:16:12;;;;;;;9.63;5.90;;;23.20;99.90;;;;;;5032480;28;20131;-84
2022/07/13 07:18:38;;;;;;;13.68;6.40;;;23.30;99.90;;;;;;5028367;28;20048;-85
2022/07/13 07:21:04;;;;;;;8.05;6.20;;;23.40;99.90;;;;;;5033651;28;20060;-83
2022/07/13 07:23:32;;;;;;;7.15;5.63;;;23.50;99.90;;;;;;4999662;28;20045;-83
2022/07/13 07:25:58;;;;;;;8.40;6.03;;;23.50;99.90;;;;;;5043245;28;20048;-83
2022/07/13 07:28:24;;;;;;;9.32;5.70;;;23.40;99.90;;;;;;5033991;28;20040;-83
2022/07/13 07:30:51;;;;;;;6.13;5.53;;;23.30;99.90;;;;;;5049668;28;20432;-84
2022/07/13 07:33:17;;;;;;;7.88;6.32;;;23.30;99.90;;;;;;5042242;28;20040;-85
2022/07/13 07:35:43;;;;;;;8.38;5.93;;;23.30;99.90;;;;;;5033659;28;20050;-87
2022/07/13 07:38:09;;;;;;;6.30;5.65;;;23.40;99.90;;;;;;5040240;28;20044;-84
2022/07/13 07:40:34;;;;;;;7.10;6.40;;;23.60;99.90;;;;;;5021829;28;20048;-84
2022/07/13 07:43:00;;;;;;;7.65;6.15;;;23.80;99.90;;;;;;5014075;28;20057;-83
2022/07/13 07:45:26;;;;;;;9.00;6.10;;;24.00;99.90;;;;;;5039211;28;20070;-85
2022/07/13 07:47:52;;;;;;;8.00;6.68;;;24.10;99.90;;;;;;5017649;28;20047;-85
2022/07/13 07:50:18;;;;;;;7.65;6.50;;;24.10;99.90;;;;;;5022507;28;20052;-83
2022/07/13 07:52:43;;;;;;;9.13;6.18;;;24.00;99.90;;;;;;5000381;28;20098;-83
2022/07/13 07:55:09;;;;;;;8.80;5.90;;;23.90;99.90;;;;;;5041537;28;20046;-84
2022/07/13 07:57:47;;;;;;;7.97;5.70;;;23.90;99.90;;;;;;5042332;28;20118;-83
2022/07/13 08:00:15;;;;;;;9.38;6.93;;;23.80;99.90;;;;;;5032637;28;20134;-84
2022/07/13 08:02:40;;;;;;;11.10;6.47;;;23.80;99.90;;;;;;5044986;28;20037;-85
2022/07/13 08:05:08;;;;;;;7.53;6.50;;;24.00;99.90;;;;;;5033998;28;20033;-82
2022/07/13 08:07:34;;;;;;;6.68;5.82;;;24.10;99.90;;;;;;5051241;28;20118;-84
2022/07/13 08:10:00;;;;;;;7.35;6.28;;;24.30;99.90;;;;;;5025162;28;20037;-84
2022/07/13 08:12:25;;;;;;;10.73;7.15;;;24.50;99.90;;;;;;5027240;28;20649;-85
2022/07/13 08:14:51;;;;;;;8.25;6.55;;;24.70;99.90;;;;;;5014193;28;20359;-84
2022/07/13 08:17:17;;;;;;;11.00;7.40;;;24.70;99.90;;;;;;5028970;28;20138;-83
2022/07/13 08:19:43;;;;;;;9.80;6.95;;;24.80;99.90;;;;;;5033737;28;20473;-84
2022/07/13 08:22:08;;;;;;;8.70;6.60;;;24.80;99.90;;;;;;5027410;28;20049;-85
2022/07/13 08:24:34;;;;;;;7.40;5.85;;;24.80;99.90;;;;;;4998831;28;20038;-83
2022/07/13 08:27:01;;;;;;;6.90;5.72;;;24.80;99.90;;;;;;5010172;28;20495;-84
2022/07/13 08:29:30;;;;;;;6.43;5.72;;;24.80;99.90;;;;;;5034884;28;20130;-84
2022/07/13 08:31:56;;;;;;;7.18;6.03;;;25.00;99.90;;;;;;5035006;28;20033;-83
2022/07/13 08:39:50;;;;;;;9.32;6.90;;;25.30;99.90;;;;;;5044692;28;20639;-84
2022/07/13 08:42:16;;;;;;;7.15;6.15;;;25.40;99.90;;;;;;5050491;28;20103;-83
2022/07/13 08:44:41;;;;;;;8.32;7.28;;;25.50;99.90;;;;;;5050078;28;20057;-83
2022/07/13 08:47:10;;;;;;;10.80;6.60;;;25.60;99.90;;;;;;5043494;28;20049;-84
2022/07/13 08:49:37;;;;;;;10.88;6.60;;;25.70;99.90;;;;;;5017037;28;20103;-83
2022/07/13 08:52:03;;;;;;;7.57;6.78;;;25.80;99.90;;;;;;5032573;28;20110;-84
2022/07/13 08:54:29;;;;;;;8.13;6.15;;;25.90;99.90;;;;;;5021767;28;20063;-85
2022/07/13 08:56:56;;;;;;;7.13;6.43;;;26.10;99.90;;;;;;5027169;28;20536;-84
2022/07/13 08:59:21;;;;;;;11.30;7.25;;;26.10;99.90;;;;;;5036117;28;20396;-84
2022/07/13 09:01:49;;;;;;;7.50;6.70;;;26.30;99.90;;;;;;5029899;28;20037;-83
2022/07/13 09:04:15;;;;;;;8.38;6.28;;;26.20;99.90;;;;;;5037614;28;20045;-84
2022/07/13 09:06:43;;;;;;;8.50;6.20;;;26.30;99.90;;;;;;5042981;28;20037;-84
2022/07/13 09:09:27;;;;;;;8.63;6.95;;;26.40;99.90;;;;;;5027519;28;20392;-84
2022/07/13 09:12:09;;;;;;;8.27;6.90;;;26.60;99.90;;;;;;5021573;28;20042;-84
2022/07/13 09:14:36;;;;;;;7.82;6.60;;;26.70;99.90;;;;;;5050967;28;20071;-84
2022/07/13 09:17:02;;;;;;;9.38;6.13;;;26.80;99.90;;;;;;5036284;28;20045;-84
2022/07/13 09:19:38;;;;;;;10.82;6.95;;;26.90;99.90;;;;;;5053474;28;20063;-87
2022/07/13 09:22:12;;;;;;;8.80;6.30;;;27.00;99.90;;;;;;5037620;28;20460;-87
2022/07/13 09:24:49;;;;;;;8.93;6.43;;;27.10;99.90;;;;;;5039675;28;20048;-87
2022/07/13 09:27:16;;;;;;;6.55;5.78;;;27.20;99.90;;;;;;5037382;28;20048;-87
2022/07/13 09:29:42;;;;;;;8.27;5.85;;;27.40;99.90;;;;;;5014852;28;20060;-86
2022/07/13 09:32:11;;;;;;;7.80;5.97;;;27.40;99.90;;;;;;5025810;28;20423;-86
2022/07/13 09:34:57;;;;;;;6.88;5.97;;;27.30;99.90;;;;;;5037356;28;20456;-87
2022/07/13 09:37:27;;;;;;;5.72;5.22;;;27.30;99.90;;;;;;5057773;28;20045;-87
2022/07/13 09:40:10;;;;;;;5.90;5.00;;;27.30;99.90;;;;;;5049317;28;20464;-87
2022/07/13 09:42:40;;;;;;;6.40;5.32;;;27.40;99.90;;;;;;5051592;28;20046;-87
2022/07/13 09:47:57;;;;;;;7.57;5.18;;;27.40;99.90;;;;;;5042158;28;20283;-86
2022/07/13 09:50:36;;;;;;;6.50;4.80;;;27.50;99.90;;;;;;5033183;28;20037;-87
2022/07/13 09:53:02;;;;;;;5.30;4.75;;;27.40;99.90;;;;;;5031204;28;20040;-87
2022/07/13 09:55:33;;;;;;;6.78;5.25;;;27.40;99.90;;;;;;5035530;28;20431;-87
2022/07/13 09:58:05;;;;;;;6.95;5.00;;;27.50;97.00;;;;;;5044332;28;20666;-86
2022/07/13 10:00:33;;;;;;;6.55;4.97;;;27.50;98.50;;;;;;5028003;28;20501;-86
2022/07/13 10:03:01;;;;;;;6.00;4.93;;;27.50;96.90;;;;;;5022138;28;20131;-86
2022/07/13 10:05:29;;;;;;;5.75;4.65;;;27.50;96.20;;;;;;5038000;28;20056;-86
2022/07/13 10:07:55;;;;;;;5.80;4.10;;;27.60;97.70;;;;;;5026390;28;20044;-87
2022/07/13 10:10:22;;;;;;;5.78;4.55;;;27.70;99.90;;;;;;5034353;28;20055;-87
2022/07/13 10:12:48;;;;;;;4.18;3.63;;;27.80;97.50;;;;;;5043175;28;20063;-85
2022/07/13 10:15:14;;;;;;;6.43;4.38;;;27.90;94.10;;;;;;5038651;28;20048;-87
2022/07/13 10:17:46;;;;;;;5.40;4.28;;;27.90;92.90;;;;;;5038703;28;20040;-84
2022/07/13 10:20:21;;;;;;;4.28;3.58;;;27.90;92.50;;;;;;5023027;28;20088;-86
2022/07/13 10:22:48;;;;;;;6.95;3.53;;;28.10;90.00;;;;;;5033427;28;20036;-86
2022/07/13 10:25:16;;;;;;;3.70;2.80;;;28.30;90.10;;;;;;5052963;28;20048;-83
2022/07/13 10:27:42;;;;;;;4.18;2.95;;;28.20;87.50;;;;;;5030823;28;20087;-83
2022/07/13 10:30:17;;;;;;;5.90;3.50;;;28.10;86.70;;;;;;5035076;28;20496;-84
2022/07/13 10:32:45;;;;;;;6.88;3.65;;;27.90;83.80;;;;;;5018554;28;20037;-85
2022/07/13 10:35:13;;;;;;;4.00;2.50;;;28.00;82.60;;;;;;5031581;28;20039;-84
2022/07/13 10:38:00;;;;;;;3.72;2.55;;;28.00;78.40;;;;;;5025800;28;20048;-83
2022/07/13 10:40:27;;;;;;;2.80;2.60;;;28.10;77.30;;;;;;5027941;28;20063;-83
2022/07/13 10:42:53;;;;;;;4.20;2.50;;;28.00;77.30;;;;;;5053970;28;20151;-83
2022/07/13 10:45:34;;;;;;;5.25;2.97;;;27.80;75.80;;;;;;5029506;28;20048;-84
2022/07/13 10:48:07;;;;;;;3.47;2.67;;;27.80;75.40;;;;;;5034549;28;20047;-83
2022/07/13 10:50:53;;;;;;;4.55;2.75;;;27.80;78.30;;;;;;5031082;28;20036;-83
2022/07/13 10:53:19;;;;;;;2.70;2.28;;;27.80;72.30;;;;;;5053041;28;20116;-83
2022/07/13 10:55:47;;;;;;;4.50;2.92;;;27.60;76.20;;;;;;5001735;28;20041;-84
2022/07/13 10:58:31;;;;;;;4.15;2.75;;;27.40;74.90;;;;;;5048368;28;20044;-83
2022/07/13 11:00:59;;;;;;;3.47;2.90;;;27.50;75.80;;;;;;5034763;28;20095;-85
2022/07/13 11:03:35;;;;;;;5.03;2.90;;;27.40;74.90;;;;;;5028960;28;20052;-85
2022/07/13 11:06:15;;;;;;;2.90;2.42;;;27.40;73.30;;;;;;5020461;28;20401;-84
2022/07/13 11:08:41;;;;;;;3.90;2.83;;;27.20;74.10;;;;;;5018705;28;20115;-83
2022/07/13 11:11:17;;;;;;;5.35;2.92;;;27.20;74.60;;;;;;5048363;28;20037;-82
2022/07/13 11:13:46;;;;;;;4.85;2.95;;;27.40;75.60;;;;;;5054262;28;20044;-84
2022/07/13 11:16:13;;;;;;;4.68;2.72;;;27.50;75.20;;;;;;5038076;28;20377;-84
2022/07/13 11:18:41;;;;;;;3.58;2.63;;;27.80;76.50;;;;;;5023501;28;20129;-85
2022/07/13 11:21:14;;;;;;;4.80;3.10;;;28.00;76.80;;;;;;5029503;28;20049;-83
2022/07/13 11:26:52;;;;;;;3.20;2.72;;;27.80;74.80;;;;;;5044148;28;20045;-83
2022/07/13 11:29:20;;;;;;;3.97;2.83;;;27.60;75.50;;;;;;5031059;28;20040;-82
2022/07/13 11:31:53;;;;;;;4.03;3.00;;;27.30;76.50;;;;;;5032684;28;20079;-84
2022/07/13 11:34:19;;;;;;;3.97;2.70;;;27.00;75.70;;;;;;5033029;28;20045;-83
2022/07/13 11:36:46;;;;;;;5.10;3.10;;;26.90;76.80;;;;;;5023483;28;20128;-83
2022/07/13 11:39:28;;;;;;;4.63;2.83;;;26.80;76.40;;;;;;5014084;28;20041;-82
2022/07/13 11:41:55;;;;;;;4.70;3.30;;;26.80;79.30;;;;;;5049152;28;20033;-84
2022/07/13 11:44:24;;;;;;;3.60;2.92;;;26.60;77.20;;;;;;5043425;28;20174;-82
2022/07/13 11:46:51;;;;;;;5.38;3.00;;;26.80;78.20;;;;;;5020942;28;20051;-83
2022/07/13 11:49:17;;;;;;;4.55;3.05;;;27.00;78.80;;;;;;5032871;28;20384;-83
2022/07/13 11:51:44;;;;;;;5.25;3.28;;;27.10;75.70;;;;;;5036323;28;20116;-82
2022/07/13 11:54:21;;;;;;;4.15;3.10;;;26.90;76.40;;;;;;5049999;28;20381;-84
2022/07/13 11:56:54;;;;;;;3.78;3.25;;;26.60;76.20;;;;;;5037502;28;20045;-85
2022/07/13 11:59:39;;;;;;;3.25;2.95;;;26.70;78.20;;;;;;5039654;28;20452;-82
2022/07/13 12:02:11;;;;;;;3.88;2.88;;;26.90;80.50;;;;;;5048568;28;20103;-83
2022/07/13 12:04:40;;;;;;;;;;;26.80;77.80;;;;;;5050188;28;20481;-83
2022/07/13 12:07:10;;;;;;;6.43;3.00;;;26.80;82.20;;;;;;5042095;28;19944;-84
2022/07/13 12:09:36;;;;;;;3.47;2.70;;;26.80;79.60;;;;;;5015152;28;20042;-85
2022/07/13 12:12:02;;;;;;;3.85;2.85;;;26.70;79.80;;;;;;5010311;28;20044;-83
2022/07/13 12:14:28;;;;;;;2.78;2.35;;;26.50;79.90;;;;;;5054825;28;20055;-82
2022/07/13 12:16:54;;;;;;;3.40;2.72;;;26.30;81.00;;;;;;5044425;28;20128;-85
2022/07/13 12:19:20;;;;;;;3.92;2.90;;;26.10;81.60;;;;;;5037288;28;20037;-82
2022/07/13 12:21:59;;;;;;;2.97;2.40;;;25.90;82.60;;;;;;5029590;28;20036;-84
2022/07/13 12:24:26;;;;;;;3.42;2.90;;;26.00;82.30;;;;;;5031758;28;20048;-83
2022/07/13 12:26:53;;;;;;;4.68;2.80;;;26.30;82.60;;;;;;5039177;28;20152;-82
2022/07/13 12:29:34;;;;;;;6.00;2.63;;;26.60;79.40;;;;;;5014503;28;20572;-83
2022/07/13 12:32:01;;;;;;;2.78;2.15;;;26.80;77.60;;;;;;5037018;28;20044;-84
2022/07/13 12:34:27;;;;;;;3.53;2.55;;;26.80;76.00;;;;;;5040799;28;20163;-85
2022/07/13 12:36:53;;;;;;;3.15;2.47;;;26.70;76.30;;;;;;5014021;28;20481;-84
2022/07/13 12:39:35;;;;;;;3.63;2.50;;;26.60;76.60;;;;;;5035834;28;20048;-83
2022/07/13 12:42:02;;;;;;;4.63;2.65;;;26.60;75.70;;;;;;5054587;28;20056;-82
2022/07/13 12:44:32;;;;;;;5.53;2.65;;;26.70;75.40;;;;;;5029215;28;20097;-84
2022/07/13 12:47:01;;;;;;;4.40;2.40;;;26.90;75.60;;;;;;5036570;28;20119;-83
2022/07/13 12:49:42;;;;;;;5.82;2.88;;;26.90;73.80;;;;;;5033358;28;20041;-83
2022/07/13 12:52:10;;;;;;;4.05;2.25;;;27.10;74.70;;;;;;5038260;28;20056;-84
2022/07/13 12:54:49;;;;;;;3.78;2.70;;;27.00;75.70;;;;;;5038362;28;20076;-83